KBDG

Blanding Municipal Airport

Blanding, Utah, USA
METAR KBDG 201355Z AUTO 07005KT 10SM 23/06 A3027 RMK AO1 T02300059
Observed Flight Rules
Jul-20 @ 13:55 UTC (34 minutes ago)
Wind Visibility
70° at 5 knots 10 miles
Temperatures Readings
Current 23°C / 73°F
Dewpoint 6°C / 43°F
Humidity 33%
Altimeter 30.27" Hg
Pressure 1025 hPa
Elevation 1788
METAR KBDG 201355Z AUTO 07005KT 10SM 23/06 A3027 RMK AO1 T02300059
Observed Flight Rules
Jul-20 @ 13:55 UTC
(34 minutes ago)
Wind Visibility
70° at 5 knots 10 miles
Temperature Dewpoint
23°C / 73°F 6°C / 43°F
Humidity Altimeter Pressure
33% 30.27" Hg 1025 hPa